createdAt,value
2018-06-30T00:01:42.917Z,81.47
2018-06-30T00:04:11.356Z,81.98
2018-06-30T00:06:39.875Z,82.53
2018-06-30T00:09:09.498Z,82.62
2018-06-30T00:11:38.291Z,82.86
2018-06-30T00:14:06.878Z,82.44
2018-06-30T00:16:35.461Z,83.38
2018-06-30T00:19:04.129Z,83.20
2018-06-30T00:21:32.574Z,82.96
2018-06-30T00:24:01.098Z,83.29
2018-06-30T00:26:29.528Z,83.51
2018-06-30T00:28:58.059Z,83.89
2018-06-30T00:31:26.475Z,84.05
2018-06-30T00:33:55.041Z,84.40
2018-06-30T00:36:23.954Z,84.77
2018-06-30T00:38:52.438Z,85.29
2018-06-30T00:41:20.967Z,85.49
2018-06-30T00:43:49.429Z,85.51
2018-06-30T00:46:17.950Z,86.23
2018-06-30T00:48:46.471Z,86.60
2018-06-30T00:51:14.997Z,86.43
2018-06-30T00:53:43.505Z,86.22
2018-06-30T00:56:13.591Z,86.41
2018-06-30T00:58:42.082Z,86.44
2018-06-30T01:01:10.619Z,86.87
2018-06-30T01:03:39.317Z,86.90
2018-06-30T01:06:07.907Z,87.12
2018-06-30T01:08:36.418Z,87.17
2018-06-30T01:11:04.932Z,87.89
2018-06-30T01:13:33.519Z,88.46
2018-06-30T01:16:02.050Z,88.67
2018-06-30T01:18:30.502Z,88.79
2018-06-30T01:20:59.014Z,89.13
2018-06-30T01:23:27.475Z,89.04
2018-06-30T01:25:56.137Z,89.75
2018-06-30T01:28:25.109Z,90.24
2018-06-30T01:30:54.157Z,90.99
2018-06-30T01:33:22.734Z,91.58
2018-06-30T01:35:51.208Z,91.80
2018-06-30T01:38:19.782Z,91.62
2018-06-30T01:40:48.327Z,91.45
2018-06-30T01:43:16.759Z,91.76
2018-06-30T01:45:45.242Z,92.21
2018-06-30T01:49:16.965Z,92.06
2018-06-30T01:51:45.498Z,92.78
2018-06-30T01:54:14.029Z,93.12
2018-06-30T02:02:53.992Z,93.66
2018-06-30T02:05:22.686Z,94.01
2018-06-30T02:07:51.123Z,93.87
2018-06-30T02:10:19.766Z,93.75
2018-06-30T02:12:48.359Z,93.87
2018-06-30T02:15:18.546Z,93.79
2018-06-30T02:17:47.035Z,93.77
2018-06-30T02:20:15.622Z,93.66
2018-06-30T02:22:44.074Z,93.60
2018-06-30T02:25:12.551Z,93.76
2018-06-30T02:27:41.077Z,94.10
2018-06-30T02:30:09.534Z,94.07
2018-06-30T02:32:37.986Z,94.01
2018-06-30T02:35:06.507Z,94.31
2018-06-30T02:37:35.002Z,94.11
2018-06-30T02:40:03.670Z,93.68
2018-06-30T02:42:32.131Z,93.82
2018-06-30T02:45:00.650Z,94.39
2018-06-30T02:47:29.842Z,95.07
2018-06-30T02:49:58.325Z,95.85
2018-06-30T02:52:27.142Z,96.21
2018-06-30T02:54:56.235Z,96.59
2018-06-30T02:57:24.980Z,97.13
2018-06-30T02:59:53.423Z,96.99
2018-06-30T03:02:21.988Z,96.64
2018-06-30T03:04:50.619Z,96.10
2018-06-30T03:07:19.278Z,96.27
2018-06-30T03:09:47.823Z,96.08
2018-06-30T03:12:16.316Z,95.99
2018-06-30T03:14:44.859Z,95.61
2018-06-30T03:17:17.438Z,96.07
2018-06-30T03:19:45.887Z,95.93
2018-06-30T03:22:14.415Z,96.31
2018-06-30T03:24:42.944Z,96.11
2018-06-30T03:27:11.517Z,95.95
2018-06-30T03:29:40.175Z,96.09
2018-06-30T03:32:08.627Z,96.82
2018-06-30T03:34:37.090Z,96.44
2018-06-30T03:37:06.066Z,96.30
2018-06-30T03:39:34.631Z,96.47
2018-06-30T03:42:03.142Z,96.91
2018-06-30T03:44:31.651Z,97.07
2018-06-30T03:47:00.305Z,97.07
2018-06-30T03:49:28.835Z,97.17
2018-06-30T03:51:57.429Z,97.05
2018-06-30T03:54:25.890Z,97.16
2018-06-30T03:56:54.526Z,97.05
2018-06-30T03:59:23.169Z,97.00
2018-06-30T04:01:51.746Z,97.02
2018-06-30T04:04:20.476Z,96.73
2018-06-30T04:06:49.127Z,96.52
2018-06-30T04:09:17.607Z,96.26
2018-06-30T04:11:46.043Z,96.31
2018-06-30T04:14:14.538Z,95.94
2018-06-30T04:16:43.078Z,95.71
2018-06-30T04:19:14.471Z,95.79
2018-06-30T04:21:46.182Z,95.03
2018-06-30T04:24:14.628Z,94.53
2018-06-30T04:26:43.764Z,94.16
2018-06-30T04:29:13.003Z,93.25
2018-06-30T04:31:41.482Z,93.10
2018-06-30T04:34:10.018Z,93.55
2018-06-30T04:36:38.474Z,93.81
2018-06-30T04:39:08.099Z,93.67
2018-06-30T04:41:36.580Z,93.66
2018-06-30T04:44:05.256Z,93.15
2018-06-30T04:46:33.922Z,93.44
2018-06-30T04:49:02.390Z,93.04
2018-06-30T04:51:30.881Z,92.95
2018-06-30T04:54:02.832Z,92.90
2018-06-30T04:56:31.330Z,92.47
2018-06-30T04:58:59.995Z,91.86
2018-06-30T05:01:28.490Z,91.73
2018-06-30T05:03:56.998Z,91.06
2018-06-30T05:06:25.574Z,90.05
2018-06-30T05:08:54.025Z,89.27
2018-06-30T05:11:22.765Z,89.29
2018-06-30T05:13:51.386Z,88.67
2018-06-30T05:16:20.411Z,88.51
2018-06-30T05:18:49.003Z,88.72
2018-06-30T05:21:17.584Z,88.29
2018-06-30T05:23:46.091Z,87.98
2018-06-30T05:26:14.694Z,88.05
2018-06-30T05:28:43.370Z,87.60
2018-06-30T05:31:11.921Z,87.16
2018-06-30T05:33:40.580Z,86.30
2018-06-30T05:36:08.950Z,85.92
2018-06-30T05:38:37.387Z,86.03
2018-06-30T05:41:06.241Z,85.99
2018-06-30T05:43:34.656Z,85.99
2018-06-30T05:46:03.199Z,85.90
2018-06-30T05:48:31.635Z,84.92
2018-06-30T05:51:00.159Z,84.72
2018-06-30T05:53:28.622Z,83.86
2018-06-30T05:55:57.255Z,83.14
2018-06-30T05:58:25.974Z,83.45
2018-06-30T06:00:54.499Z,83.32
2018-06-30T06:03:22.987Z,82.95
2018-06-30T06:05:51.487Z,81.70
2018-06-30T06:08:20.076Z,81.42
2018-06-30T06:10:48.572Z,81.13
2018-06-30T06:13:17.080Z,81.60
2018-06-30T06:15:45.722Z,80.66
2018-06-30T06:18:14.338Z,80.34
2018-06-30T06:20:42.860Z,80.18
2018-06-30T06:23:11.379Z,79.83
2018-06-30T06:25:39.913Z,80.29
2018-06-30T06:28:08.799Z,79.72
2018-06-30T06:30:37.911Z,79.29
2018-06-30T06:33:06.834Z,78.98
2018-06-30T06:35:35.386Z,78.96
2018-06-30T06:38:03.929Z,78.80
2018-06-30T06:40:32.448Z,78.66
2018-06-30T06:43:00.988Z,77.74
2018-06-30T06:45:29.462Z,77.58
2018-06-30T06:47:58.001Z,78.05
2018-06-30T06:50:26.559Z,77.69
2018-06-30T06:52:55.087Z,76.96
2018-06-30T06:55:23.649Z,77.16
2018-06-30T06:57:52.099Z,75.82
2018-06-30T07:00:20.622Z,75.54
2018-06-30T07:02:49.098Z,75.65
2018-06-30T07:05:17.545Z,75.11
2018-06-30T07:07:46.024Z,74.85
2018-06-30T07:10:14.485Z,75.16
2018-06-30T07:12:43.016Z,74.08
2018-06-30T07:15:11.615Z,73.53
2018-06-30T07:17:40.063Z,72.55
2018-06-30T07:20:08.610Z,72.70
2018-06-30T07:22:37.118Z,71.62
2018-06-30T07:25:05.606Z,72.19
2018-06-30T07:27:34.087Z,72.09
2018-06-30T07:30:02.617Z,70.91
2018-06-30T07:32:31.278Z,70.51
2018-06-30T07:34:59.896Z,70.82
2018-06-30T07:37:28.438Z,70.18
2018-06-30T07:39:56.871Z,68.87
2018-06-30T07:42:25.374Z,68.32
2018-06-30T07:44:54.006Z,68.28
2018-06-30T07:47:22.542Z,68.38
2018-06-30T07:49:52.850Z,66.60
2018-06-30T07:52:21.481Z,65.57
2018-06-30T07:54:50.999Z,65.49
2018-06-30T07:57:19.494Z,64.72
2018-06-30T07:59:48.025Z,64.22
2018-06-30T08:02:16.512Z,63.40
2018-06-30T08:04:44.966Z,63.55
2018-06-30T08:07:13.590Z,62.96
2018-06-30T08:09:42.288Z,62.81
2018-06-30T08:12:10.830Z,62.82
2018-06-30T08:14:39.310Z,62.19
2018-06-30T08:17:07.816Z,60.87
2018-06-30T08:19:36.393Z,61.20
2018-06-30T08:22:04.966Z,61.78
2018-06-30T08:24:33.422Z,62.09
2018-06-30T08:27:01.964Z,61.37
2018-06-30T08:29:30.731Z,61.00
2018-06-30T08:31:59.154Z,59.52
2018-06-30T08:34:27.666Z,59.12
2018-06-30T08:36:56.150Z,59.11
2018-06-30T08:39:24.703Z,57.41
2018-06-30T08:41:53.323Z,57.99
2018-06-30T08:44:22.006Z,56.54
2018-06-30T08:46:50.459Z,56.45
2018-06-30T08:49:18.963Z,55.43
2018-06-30T08:51:47.443Z,54.53
2018-06-30T08:54:16.089Z,54.97
2018-06-30T08:56:44.641Z,53.78
2018-06-30T08:59:13.092Z,52.25
2018-06-30T09:01:41.623Z,52.96
2018-06-30T09:04:10.248Z,53.38
2018-06-30T09:06:38.821Z,52.57
2018-06-30T09:09:09.627Z,51.86
2018-06-30T09:11:38.227Z,49.79
2018-06-30T09:14:06.852Z,49.44
2018-06-30T09:16:35.411Z,49.47
2018-06-30T09:19:04.114Z,49.40
2018-06-30T09:21:32.722Z,48.75
2018-06-30T09:24:01.286Z,48.88
2018-06-30T09:26:32.770Z,48.43
2018-06-30T09:29:01.235Z,47.60
2018-06-30T09:31:29.912Z,46.38
2018-06-30T09:33:58.432Z,46.22
2018-06-30T09:36:27.014Z,44.62
2018-06-30T09:38:55.462Z,44.57
2018-06-30T09:41:24.123Z,46.81
2018-06-30T09:43:52.602Z,47.31
2018-06-30T09:46:21.208Z,45.30
2018-06-30T09:48:49.646Z,45.48
2018-06-30T09:51:18.167Z,44.53
2018-06-30T09:53:46.662Z,40.71
2018-06-30T09:56:15.200Z,39.01
2018-06-30T09:58:43.815Z,39.67
2018-06-30T10:01:12.283Z,37.90
2018-06-30T10:03:40.778Z,37.91
2018-06-30T10:06:09.301Z,37.21
2018-06-30T10:08:37.826Z,36.14
2018-06-30T10:11:07.085Z,36.33
2018-06-30T10:13:35.647Z,34.98
2018-06-30T10:16:04.182Z,36.23
2018-06-30T10:18:32.811Z,34.70
2018-06-30T10:21:01.429Z,36.65
2018-06-30T10:23:30.092Z,32.95
2018-06-30T10:25:58.584Z,34.51
2018-06-30T10:28:27.144Z,33.73
2018-06-30T10:30:55.636Z,33.64
2018-06-30T10:33:24.161Z,34.58
2018-06-30T10:35:52.731Z,33.88
2018-06-30T10:38:21.243Z,33.07
2018-06-30T10:40:49.819Z,32.45
2018-06-30T10:43:18.498Z,33.37
2018-06-30T10:45:46.995Z,33.22
2018-06-30T10:48:15.427Z,34.79
2018-06-30T10:50:43.850Z,35.78
2018-06-30T10:53:12.348Z,34.40
2018-06-30T10:55:40.823Z,33.33
2018-06-30T10:58:09.386Z,30.95
2018-06-30T11:00:38.018Z,29.20
2018-06-30T11:03:06.776Z,29.68
2018-06-30T11:05:35.243Z,28.65
2018-06-30T11:08:03.810Z,34.41
2018-06-30T11:10:32.407Z,37.10
2018-06-30T11:13:00.926Z,36.25
2018-06-30T11:15:29.430Z,34.32
2018-06-30T11:17:57.972Z,34.34
2018-06-30T11:20:26.555Z,30.23
2018-06-30T11:22:55.060Z,32.11
2018-06-30T11:25:23.594Z,28.07
2018-06-30T11:27:52.160Z,29.16
2018-06-30T11:30:20.761Z,27.34
2018-06-30T11:32:49.323Z,27.95
2018-06-30T11:35:17.746Z,29.13
2018-06-30T11:37:46.254Z,28.18
2018-06-30T11:40:14.702Z,26.58
2018-06-30T11:42:43.230Z,27.13
2018-06-30T11:45:11.743Z,25.54
2018-06-30T11:47:40.270Z,23.85
2018-06-30T11:50:08.882Z,23.58
2018-06-30T11:52:37.432Z,24.09
2018-06-30T11:55:06.347Z,24.60
2018-06-30T11:57:34.888Z,23.31
2018-06-30T12:00:03.481Z,23.38
2018-06-30T12:02:32.044Z,24.25
2018-06-30T12:05:00.526Z,22.98
2018-06-30T12:07:29.050Z,22.95
2018-06-30T12:09:57.631Z,22.83
2018-06-30T12:12:26.099Z,23.12
2018-06-30T12:14:54.607Z,21.95
2018-06-30T12:17:23.040Z,21.21
2018-06-30T12:19:51.627Z,20.39
2018-06-30T12:22:20.256Z,20.90
2018-06-30T12:24:48.834Z,21.42
2018-06-30T12:27:17.355Z,20.60
2018-06-30T12:29:45.862Z,20.08
2018-06-30T12:32:14.437Z,20.70
2018-06-30T12:34:42.870Z,20.71
2018-06-30T12:37:11.383Z,20.25
2018-06-30T12:39:40.112Z,20.13
2018-06-30T12:42:08.707Z,20.92
2018-06-30T12:44:37.223Z,20.38
2018-06-30T12:47:05.883Z,18.45
2018-06-30T12:49:34.528Z,17.75
2018-06-30T12:52:03.071Z,17.62
2018-06-30T12:54:31.670Z,18.25
2018-06-30T12:56:59.973Z,17.37
2018-06-30T12:59:28.462Z,18.04
2018-06-30T13:01:56.947Z,16.49
2018-06-30T13:04:25.568Z,15.75
2018-06-30T13:06:54.003Z,17.52
2018-06-30T13:09:22.536Z,17.31
2018-06-30T13:11:51.059Z,16.51
2018-06-30T13:14:19.588Z,17.60
2018-06-30T13:16:48.048Z,15.50
2018-06-30T13:19:16.529Z,17.17
2018-06-30T13:21:45.025Z,16.84
2018-06-30T13:24:13.559Z,16.46
2018-06-30T13:26:42.095Z,16.08
2018-06-30T13:29:10.691Z,15.46
2018-06-30T13:31:39.182Z,14.60
2018-06-30T13:34:08.815Z,16.25
2018-06-30T13:36:37.303Z,14.89
2018-06-30T13:39:09.606Z,14.56
2018-06-30T13:41:38.128Z,14.90
2018-06-30T13:44:07.017Z,14.91
2018-06-30T13:46:35.480Z,13.85
2018-06-30T13:49:03.985Z,15.72
2018-06-30T13:51:32.602Z,16.94
2018-06-30T13:54:01.128Z,16.47
2018-06-30T13:56:29.606Z,16.58
2018-06-30T13:58:58.206Z,15.46
2018-06-30T14:01:26.835Z,15.16
2018-06-30T14:03:55.343Z,14.87
2018-06-30T14:06:24.058Z,14.80
2018-06-30T14:08:52.522Z,15.46
2018-06-30T14:11:21.122Z,15.04
2018-06-30T14:13:49.547Z,15.45
2018-06-30T14:16:18.086Z,14.66
2018-06-30T14:18:46.628Z,13.89
2018-06-30T14:21:15.234Z,13.50
2018-06-30T14:23:43.734Z,15.62
2018-06-30T14:26:12.228Z,14.88
2018-06-30T14:28:40.836Z,14.08
2018-06-30T14:31:09.471Z,14.73
2018-06-30T14:33:37.954Z,15.89
2018-06-30T14:36:06.467Z,15.78
2018-06-30T14:38:35.071Z,14.87
2018-06-30T14:41:07.451Z,14.76
2018-06-30T14:43:35.941Z,13.87
2018-06-30T14:46:04.620Z,15.44
2018-06-30T14:48:33.151Z,15.40
2018-06-30T14:51:01.675Z,16.58
2018-06-30T14:53:30.198Z,15.17
2018-06-30T14:55:59.244Z,17.08
2018-06-30T14:58:27.783Z,16.38
2018-06-30T15:00:56.295Z,15.22
2018-06-30T15:03:24.869Z,16.36
2018-06-30T15:05:53.318Z,16.46
2018-06-30T15:08:21.937Z,16.16
2018-06-30T15:10:50.551Z,14.13
2018-06-30T15:13:19.141Z,14.58
2018-06-30T15:15:47.819Z,15.44
2018-06-30T15:18:16.437Z,17.25
2018-06-30T15:20:44.955Z,17.18
2018-06-30T15:23:13.578Z,17.55
2018-06-30T15:25:42.105Z,17.15
2018-06-30T15:28:10.598Z,17.24
2018-06-30T15:30:39.076Z,17.31
2018-06-30T15:33:07.605Z,16.78
2018-06-30T15:35:36.127Z,16.52
2018-06-30T15:38:04.694Z,17.47
2018-06-30T15:40:33.231Z,16.74
2018-06-30T15:43:02.045Z,17.15
2018-06-30T15:45:30.584Z,17.12
2018-06-30T15:47:59.120Z,16.15
2018-06-30T15:50:27.715Z,16.01
2018-06-30T15:52:56.283Z,16.04
2018-06-30T15:55:25.106Z,15.48
2018-06-30T15:57:53.622Z,15.54
2018-06-30T16:00:22.179Z,15.54
2018-06-30T16:02:50.960Z,16.52
2018-06-30T16:05:19.637Z,16.92
2018-06-30T16:07:48.405Z,18.64
2018-06-30T16:10:16.927Z,16.71
2018-06-30T16:12:45.571Z,15.83
2018-06-30T16:15:14.035Z,15.64
2018-06-30T16:17:42.564Z,15.43
2018-06-30T16:20:11.127Z,15.39
2018-06-30T16:22:39.748Z,15.36
2018-06-30T16:25:08.598Z,16.72
2018-06-30T16:27:37.086Z,16.98
2018-06-30T16:30:06.918Z,16.49
2018-06-30T16:32:35.839Z,16.89
2018-06-30T16:35:04.498Z,16.20
2018-06-30T16:37:33.146Z,17.16
2018-06-30T16:40:01.752Z,17.26
2018-06-30T16:42:30.353Z,17.86
2018-06-30T16:44:58.919Z,18.41
2018-06-30T16:47:27.668Z,17.22
2018-06-30T16:49:56.335Z,17.32
2018-06-30T16:52:24.860Z,18.19
2018-06-30T16:54:53.988Z,17.43
2018-06-30T16:57:22.569Z,17.49
2018-06-30T16:59:51.105Z,16.92
2018-06-30T17:02:19.606Z,17.38
2018-06-30T17:04:48.156Z,16.25
2018-06-30T17:07:16.666Z,17.28
2018-06-30T17:09:45.278Z,16.40
2018-06-30T17:12:13.819Z,16.90
2018-06-30T17:14:43.371Z,17.65
2018-06-30T17:17:11.945Z,18.51
2018-06-30T17:19:40.576Z,18.25
2018-06-30T17:22:09.139Z,19.24
2018-06-30T17:24:37.739Z,18.33
2018-06-30T17:27:06.572Z,18.42
2018-06-30T17:29:35.078Z,18.05
2018-06-30T17:32:03.667Z,18.87
2018-06-30T17:34:32.134Z,18.64
2018-06-30T17:37:00.647Z,18.50
2018-06-30T17:39:29.195Z,18.89
2018-06-30T17:41:57.797Z,19.10
2018-06-30T17:44:26.426Z,19.58
2018-06-30T17:46:54.985Z,20.82
2018-06-30T17:49:23.674Z,20.90
2018-06-30T17:51:52.295Z,21.05
2018-06-30T17:54:20.871Z,22.24
2018-06-30T17:56:49.420Z,20.88
2018-06-30T17:59:18.095Z,23.11
2018-06-30T18:01:46.704Z,22.80
2018-06-30T18:04:15.381Z,23.42
2018-06-30T18:06:43.942Z,24.70
2018-06-30T18:09:12.913Z,26.35
2018-06-30T18:11:42.207Z,30.16
2018-06-30T18:14:10.886Z,32.14
2018-06-30T18:16:39.473Z,33.33
2018-06-30T18:19:08.087Z,33.97
2018-06-30T18:21:36.596Z,34.87
2018-06-30T18:25:29.623Z,35.92
2018-06-30T18:27:58.226Z,36.63
2018-06-30T18:30:27.036Z,37.54
2018-06-30T18:32:55.583Z,36.71
2018-06-30T18:35:24.355Z,37.03
2018-06-30T18:37:52.811Z,37.49
2018-06-30T18:40:21.467Z,37.87
2018-06-30T18:42:49.996Z,38.01
2018-06-30T18:45:18.515Z,38.35
2018-06-30T18:47:47.246Z,38.44
2018-06-30T18:50:15.799Z,38.24
2018-06-30T18:52:44.369Z,39.24
2018-06-30T18:55:13.007Z,39.32
2018-06-30T18:57:41.524Z,39.54
2018-06-30T19:00:10.556Z,40.53
2018-06-30T19:02:39.096Z,40.20
2018-06-30T19:05:07.959Z,39.98
2018-06-30T19:07:36.554Z,39.97
2018-06-30T19:10:05.273Z,40.00
2018-06-30T19:12:38.755Z,40.10
2018-06-30T19:15:07.308Z,40.57
2018-06-30T19:17:35.807Z,41.30
2018-06-30T19:20:05.081Z,42.00
2018-06-30T19:22:33.615Z,41.90
2018-06-30T19:25:02.224Z,42.82
2018-06-30T19:27:30.791Z,42.95
2018-06-30T19:30:03.376Z,43.18
2018-06-30T19:32:31.913Z,42.72
2018-06-30T19:35:00.409Z,42.51
2018-06-30T19:37:28.998Z,43.46
2018-06-30T19:39:57.460Z,43.64
2018-06-30T19:42:26.199Z,43.87
2018-06-30T19:44:54.659Z,43.85
2018-06-30T19:47:23.352Z,43.12
2018-06-30T19:49:51.914Z,43.31
2018-06-30T19:52:20.443Z,43.76
2018-06-30T19:54:48.968Z,43.48
2018-06-30T19:57:17.459Z,43.33
2018-06-30T19:59:46.205Z,44.12
2018-06-30T20:02:14.794Z,44.44
2018-06-30T20:04:44.806Z,44.55
2018-06-30T20:07:13.426Z,44.64
2018-06-30T20:09:41.923Z,45.27
2018-06-30T20:12:10.540Z,46.21
2018-06-30T20:14:39.084Z,46.16
2018-06-30T20:17:07.588Z,46.54
2018-06-30T20:19:36.145Z,46.96
2018-06-30T20:22:04.791Z,47.62
2018-06-30T20:24:33.343Z,48.12
2018-06-30T20:27:02.083Z,48.20
2018-06-30T20:29:30.733Z,49.24
2018-06-30T20:31:59.459Z,48.93
2018-06-30T20:34:28.054Z,50.11
2018-06-30T20:36:56.949Z,50.46
2018-06-30T20:39:26.011Z,51.06
2018-06-30T20:41:54.709Z,51.52
2018-06-30T20:44:23.417Z,51.80
2018-06-30T20:46:51.992Z,52.40
2018-06-30T20:49:20.536Z,52.53
2018-06-30T20:51:49.167Z,53.40
2018-06-30T20:54:17.652Z,53.25
2018-06-30T20:56:46.159Z,54.76
2018-06-30T20:59:14.834Z,54.88
2018-06-30T21:01:43.425Z,55.25
2018-06-30T21:04:11.980Z,56.00
2018-06-30T21:06:40.527Z,55.98
2018-06-30T21:09:10.520Z,56.42
2018-06-30T21:11:39.080Z,55.92
2018-06-30T21:14:07.617Z,57.41
2018-06-30T21:16:36.173Z,57.37
2018-06-30T21:19:04.792Z,57.60
2018-06-30T21:21:33.437Z,57.81
2018-06-30T21:24:02.171Z,58.66
2018-06-30T21:26:30.633Z,58.92
2018-06-30T21:28:59.166Z,58.97
2018-06-30T21:31:27.614Z,59.41
2018-06-30T21:33:56.095Z,60.09
2018-06-30T21:36:24.736Z,60.74
2018-06-30T21:38:53.426Z,61.45
2018-06-30T21:41:21.965Z,60.53
2018-06-30T21:43:50.471Z,60.77
2018-06-30T21:46:19.003Z,61.76
2018-06-30T21:48:47.543Z,61.74
2018-06-30T21:53:50.647Z,62.39
2018-06-30T21:56:19.229Z,62.97
2018-06-30T21:58:47.793Z,63.64
2018-06-30T22:01:21.664Z,64.54
2018-06-30T22:03:50.244Z,64.42
2018-06-30T22:06:18.792Z,64.96
2018-06-30T22:09:17.999Z,65.42
2018-06-30T22:11:46.615Z,66.19
2018-06-30T22:14:15.412Z,66.24
2018-06-30T22:16:43.904Z,66.56
2018-06-30T22:19:12.644Z,66.67
2018-06-30T22:21:41.115Z,67.14
2018-06-30T22:24:09.643Z,67.38
2018-06-30T22:26:38.094Z,67.81
2018-06-30T22:29:06.740Z,67.86
2018-06-30T22:31:35.398Z,68.53
2018-06-30T22:34:04.143Z,68.73
2018-06-30T22:36:32.792Z,68.83
2018-06-30T22:39:01.373Z,69.13
2018-06-30T22:41:30.187Z,69.54
2018-06-30T22:43:58.686Z,70.04
2018-06-30T22:46:27.190Z,70.66
2018-06-30T22:48:55.755Z,70.21
2018-06-30T22:51:24.924Z,70.63
2018-06-30T22:53:53.459Z,70.74
2018-06-30T22:56:22.004Z,70.69
2018-06-30T23:01:19.061Z,71.91
2018-06-30T23:03:47.571Z,71.35
2018-06-30T23:06:16.095Z,71.60
2018-06-30T23:08:49.951Z,71.36
2018-06-30T23:11:18.443Z,71.58
2018-06-30T23:13:46.936Z,71.69
2018-06-30T23:16:15.431Z,72.51
2018-06-30T23:18:43.984Z,72.96
2018-06-30T23:21:12.599Z,72.24
2018-06-30T23:23:41.048Z,72.89
2018-06-30T23:26:09.555Z,73.31
2018-06-30T23:28:38.058Z,73.55
2018-06-30T23:31:06.647Z,74.06
2018-06-30T23:33:35.166Z,72.62
2018-06-30T23:36:05.281Z,72.90
2018-06-30T23:38:33.910Z,72.55
2018-06-30T23:41:02.422Z,72.53
2018-06-30T23:43:30.958Z,73.48
2018-06-30T23:45:59.466Z,74.58
2018-06-30T23:48:28.007Z,74.58
2018-06-30T23:50:56.571Z,75.29
2018-06-30T23:53:25.167Z,76.05
2018-06-30T23:55:53.853Z,76.55
2018-06-30T23:58:22.547Z,76.34
